Time;durP1;ratioP1;P1;durP2;ratioP2;P2;SDS_P1;SDS_P2;PMS_P1;PMS_P2;Temp;Humidity;BMP_temperature;BMP_pressure;BME280_temperature;BME280_humidity;BME280_pressure;Samples;Min_cycle;Max_cycle;Signal;HPM_P1;HPM_P2
2023/12/09 00:02:20;;;;;;;45.13;32.60;;;;;;;;;;5073623;28;20074;-63
2023/12/09 00:04:46;;;;;;;46.60;32.27;;;;;;;;;;5073708;28;20400;-63
2023/12/09 00:07:12;;;;;;;41.77;30.00;;;;;;;;;;5070600;28;20035;-63
2023/12/09 00:09:38;;;;;;;42.87;30.80;;;;;;;;;;5061294;28;20050;-63
2023/12/09 00:12:04;;;;;;;42.40;29.40;;;;;;;;;;5055642;28;20043;-63
2023/12/09 00:14:30;;;;;;;41.27;30.20;;;;;;;;;;5073000;28;20021;-64
2023/12/09 00:16:56;;;;;;;47.77;31.17;;;;;;;;;;5073419;28;20036;-63
2023/12/09 00:19:22;;;;;;;42.47;31.30;;;;;;;;;;5073347;28;20044;-63
2023/12/09 00:21:48;;;;;;;45.07;30.97;;;;;;;;;;5069171;28;20021;-63
2023/12/09 00:24:14;;;;;;;45.07;32.60;;;;;;;;;;5068733;28;20498;-64
2023/12/09 00:26:45;;;;;;;43.90;31.93;;;;;;;;;;5073485;28;20024;-64
2023/12/09 00:29:10;;;;;;;45.27;32.40;;;;;;;;;;5072809;28;20382;-63
2023/12/09 00:31:37;;;;;;;38.67;30.43;;;;;;;;;;5059374;28;20040;-63
2023/12/09 00:34:02;;;;;;;44.37;32.10;;;;;;;;;;5073164;28;20378;-63
2023/12/09 00:36:28;;;;;;;42.17;30.10;;;;;;;;;;5072477;28;20025;-63
2023/12/09 00:38:54;;;;;;;42.90;30.70;;;;;;;;;;5072961;28;20095;-63
2023/12/09 00:41:20;;;;;;;41.17;29.67;;;;;;;;;;5071106;28;20021;-64
2023/12/09 00:47:03;;;;;;;43.90;30.73;;;;;;;;;;5040790;28;20098;-63
2023/12/09 00:49:29;;;;;;;45.23;31.93;;;;;;;;;;5069668;28;20031;-64
2023/12/09 00:51:55;;;;;;;44.50;29.40;;;;;;;;;;5069486;28;20470;-64
2023/12/09 00:54:21;;;;;;;45.27;31.07;;;;;;;;;;5070683;28;20024;-64
2023/12/09 00:56:47;;;;;;;50.03;32.77;;;;;;;;;;5068122;28;20032;-63
2023/12/09 00:59:13;;;;;;;52.67;34.47;;;;;;;;;;5071421;28;20012;-63
2023/12/09 01:01:39;;;;;;;56.40;34.73;;;;;;;;;;5072492;28;20123;-63
2023/12/09 01:04:06;;;;;;;57.80;35.90;;;;;;;;;;5072424;28;20028;-64
2023/12/09 01:06:32;;;;;;;56.97;35.70;;;;;;;;;;5072182;28;20082;-64
2023/12/09 01:08:58;;;;;;;62.93;38.87;;;;;;;;;;5072226;28;20111;-64
2023/12/09 01:11:24;;;;;;;64.67;39.17;;;;;;;;;;5072173;28;20032;-64
2023/12/09 01:13:50;;;;;;;64.47;39.73;;;;;;;;;;5072184;28;20024;-64
2023/12/09 01:16:16;;;;;;;65.03;40.07;;;;;;;;;;5070916;28;20417;-64
2023/12/09 01:18:42;;;;;;;69.33;41.00;;;;;;;;;;5072105;28;20028;-63
2023/12/09 01:21:08;;;;;;;71.67;41.43;;;;;;;;;;5065578;28;20086;-63
2023/12/09 01:23:34;;;;;;;66.47;38.87;;;;;;;;;;5058552;28;20044;-63
2023/12/09 01:29:04;;;;;;;65.67;39.20;;;;;;;;;;5058460;28;21719;-64
2023/12/09 01:31:30;;;;;;;68.17;40.03;;;;;;;;;;5071900;28;20437;-63
2023/12/09 01:33:57;;;;;;;65.10;38.87;;;;;;;;;;5071992;28;20109;-64
2023/12/09 01:36:23;;;;;;;67.00;39.27;;;;;;;;;;5072190;28;20102;-63
2023/12/09 01:38:49;;;;;;;69.57;39.03;;;;;;;;;;5071976;28;20028;-63
2023/12/09 01:41:15;;;;;;;68.37;40.73;;;;;;;;;;5067333;28;20100;-64
2023/12/09 01:43:42;;;;;;;71.07;40.63;;;;;;;;;;5059790;28;20058;-63
2023/12/09 01:46:10;;;;;;;67.27;40.70;;;;;;;;;;5068890;28;20024;-64
2023/12/09 01:48:37;;;;;;;67.40;38.23;;;;;;;;;;5071648;28;20036;-64
2023/12/09 01:51:03;;;;;;;63.60;37.60;;;;;;;;;;5072056;28;20036;-63
2023/12/09 01:53:30;;;;;;;60.57;38.30;;;;;;;;;;5071769;28;20086;-63
2023/12/09 01:55:58;;;;;;;71.63;42.00;;;;;;;;;;5070360;28;20025;-63
2023/12/09 01:58:24;;;;;;;72.23;40.67;;;;;;;;;;5071767;28;20021;-63
2023/12/09 02:00:50;;;;;;;68.00;40.67;;;;;;;;;;5070314;28;20036;-63
2023/12/09 02:03:16;;;;;;;66.03;39.40;;;;;;;;;;5071546;28;20088;-63
2023/12/09 02:05:42;;;;;;;68.30;39.70;;;;;;;;;;5071362;28;20027;-63
2023/12/09 02:08:08;;;;;;;76.33;43.57;;;;;;;;;;5071042;28;20028;-63
2023/12/09 02:10:34;;;;;;;75.40;43.93;;;;;;;;;;5070556;28;20036;-63
2023/12/09 02:13:03;;;;;;;77.87;44.83;;;;;;;;;;5070449;28;20036;-63
2023/12/09 02:15:53;;;;;;;81.63;45.83;;;;;;;;;;5070143;28;20028;-64
2023/12/09 02:18:19;;;;;;;82.87;45.70;;;;;;;;;;5059763;28;20580;-63
2023/12/09 02:20:45;;;;;;;83.07;46.13;;;;;;;;;;5069966;28;20111;-63
2023/12/09 02:23:12;;;;;;;86.03;48.57;;;;;;;;;;5070464;28;20115;-63
2023/12/09 02:25:39;;;;;;;89.13;48.80;;;;;;;;;;5070037;28;20021;-63
2023/12/09 02:31:19;;;;;;;88.40;48.10;;;;;;;;;;5061274;28;20052;-63
2023/12/09 02:33:45;;;;;;;81.47;46.50;;;;;;;;;;5067144;28;20087;-63
2023/12/09 02:36:15;;;;;;;88.60;48.37;;;;;;;;;;5071351;28;20367;-63
2023/12/09 02:38:42;;;;;;;95.83;50.10;;;;;;;;;;5071289;28;20432;-63
2023/12/09 02:41:09;;;;;;;91.47;49.17;;;;;;;;;;5071468;28;20036;-63
2023/12/09 02:43:35;;;;;;;89.57;46.37;;;;;;;;;;5071499;28;20024;-63
2023/12/09 02:46:01;;;;;;;87.90;46.00;;;;;;;;;;5055785;28;20490;-63
2023/12/09 02:48:27;;;;;;;88.03;46.60;;;;;;;;;;5071189;28;20095;-63
2023/12/09 02:50:53;;;;;;;92.70;48.23;;;;;;;;;;5071021;28;20036;-63
2023/12/09 02:53:19;;;;;;;86.77;45.47;;;;;;;;;;5063867;28;20100;-63
2023/12/09 02:55:45;;;;;;;83.07;41.43;;;;;;;;;;5064224;28;20085;-63
2023/12/09 02:58:12;;;;;;;82.27;42.20;;;;;;;;;;5074839;28;20021;-63
2023/12/09 03:00:38;;;;;;;76.53;41.40;;;;;;;;;;5060713;28;20025;-63
2023/12/09 03:03:04;;;;;;;79.73;40.47;;;;;;;;;;5074775;28;20103;-64
2023/12/09 03:05:30;;;;;;;75.40;39.90;;;;;;;;;;5075018;28;20489;-63
2023/12/09 03:07:56;;;;;;;76.43;42.60;;;;;;;;;;5074822;28;20158;-63
2023/12/09 03:10:21;;;;;;;78.63;42.47;;;;;;;;;;5074713;28;20326;-63
2023/12/09 03:12:48;;;;;;;75.40;41.47;;;;;;;;;;5074855;28;20055;-63
2023/12/09 03:15:14;;;;;;;79.37;42.97;;;;;;;;;;5073455;28;20021;-63
2023/12/09 03:17:41;;;;;;;74.43;41.83;;;;;;;;;;5066101;28;20075;-63
2023/12/09 03:20:08;;;;;;;73.17;40.40;;;;;;;;;;5084789;28;20491;-63
2023/12/09 03:22:34;;;;;;;70.70;39.17;;;;;;;;;;5074647;28;20473;-63
2023/12/09 03:25:00;;;;;;;60.93;36.00;;;;;;;;;;5074489;28;20017;-63
2023/12/09 03:27:26;;;;;;;71.13;39.43;;;;;;;;;;5074148;28;20024;-63
2023/12/09 03:29:52;;;;;;;54.13;33.53;;;;;;;;;;5074351;28;20050;-63
2023/12/09 03:32:18;;;;;;;50.87;32.67;;;;;;;;;;5074175;28;20029;-63
2023/12/09 03:34:45;;;;;;;45.17;31.07;;;;;;;;;;5074342;28;20104;-63
2023/12/09 03:37:11;;;;;;;48.57;30.13;;;;;;;;;;5074053;28;20094;-63
2023/12/09 03:39:37;;;;;;;43.37;29.77;;;;;;;;;;5072831;28;20374;-63
2023/12/09 03:42:12;;;;;;;42.40;28.67;;;;;;;;;;5074215;28;20485;-63
2023/12/09 03:44:38;;;;;;;47.00;30.03;;;;;;;;;;5060569;28;20059;-63
2023/12/09 03:47:04;;;;;;;41.67;30.10;;;;;;;;;;5073799;28;20095;-63
2023/12/09 03:49:30;;;;;;;39.97;27.57;;;;;;;;;;5074022;28;20025;-64
2023/12/09 03:51:56;;;;;;;42.93;29.10;;;;;;;;;;5073836;28;20032;-63
2023/12/09 03:54:22;;;;;;;41.03;29.30;;;;;;;;;;5059797;28;20110;-63
2023/12/09 03:56:48;;;;;;;44.30;28.77;;;;;;;;;;5073873;28;20024;-63
2023/12/09 03:59:14;;;;;;;47.63;30.77;;;;;;;;;;5072270;28;20035;-63
2023/12/09 04:01:50;;;;;;;46.57;30.70;;;;;;;;;;5073747;28;20024;-63
2023/12/09 04:04:16;;;;;;;50.00;32.50;;;;;;;;;;5073878;28;20021;-63
2023/12/09 04:06:42;;;;;;;47.40;30.93;;;;;;;;;;5073149;28;20021;-63
2023/12/09 04:09:10;;;;;;;48.17;30.73;;;;;;;;;;5073715;28;20031;-63
2023/12/09 04:11:36;;;;;;;44.87;31.23;;;;;;;;;;5073424;28;20111;-64
2023/12/09 04:14:02;;;;;;;44.00;30.13;;;;;;;;;;5073614;28;20055;-63
2023/12/09 04:16:28;;;;;;;45.13;29.97;;;;;;;;;;5071972;28;20381;-63
2023/12/09 04:18:55;;;;;;;41.07;29.57;;;;;;;;;;5071557;28;20106;-63
2023/12/09 04:21:21;;;;;;;37.97;27.87;;;;;;;;;;5073410;28;20024;-63
2023/12/09 04:23:47;;;;;;;40.47;29.47;;;;;;;;;;5073269;28;20016;-63
2023/12/09 04:26:13;;;;;;;42.17;28.97;;;;;;;;;;5073130;28;20074;-63
2023/12/09 04:28:39;;;;;;;39.73;29.97;;;;;;;;;;5073014;28;20020;-63
2023/12/09 04:31:05;;;;;;;41.17;30.37;;;;;;;;;;5073468;28;20051;-63
2023/12/09 04:33:31;;;;;;;42.97;30.50;;;;;;;;;;5070130;28;20032;-63
2023/12/09 04:35:57;;;;;;;38.97;28.93;;;;;;;;;;5053132;28;20106;-63
2023/12/09 04:38:24;;;;;;;43.37;30.37;;;;;;;;;;5064475;28;20165;-62
2023/12/09 04:40:50;;;;;;;42.47;29.23;;;;;;;;;;5072009;28;20033;-64
2023/12/09 04:43:16;;;;;;;40.60;30.23;;;;;;;;;;5073460;28;20378;-63
2023/12/09 04:45:42;;;;;;;43.27;30.63;;;;;;;;;;5072978;28;20070;-63
2023/12/09 04:48:08;;;;;;;41.47;30.30;;;;;;;;;;5072641;28;20036;-63
2023/12/09 04:50:34;;;;;;;40.10;29.63;;;;;;;;;;5072947;28;20117;-63
2023/12/09 04:53:00;;;;;;;42.67;30.90;;;;;;;;;;5072805;28;20079;-63
2023/12/09 04:55:26;;;;;;;44.10;30.87;;;;;;;;;;5072821;28;20099;-63
2023/12/09 04:57:52;;;;;;;43.60;30.80;;;;;;;;;;5072415;28;20458;-63
2023/12/09 05:00:18;;;;;;;40.50;30.30;;;;;;;;;;5071594;28;20028;-62
2023/12/09 05:02:44;;;;;;;42.07;29.30;;;;;;;;;;5072631;28;20087;-62
2023/12/09 05:05:10;;;;;;;45.63;32.67;;;;;;;;;;5072671;28;20029;-62
2023/12/09 05:07:36;;;;;;;42.20;31.37;;;;;;;;;;5070969;28;20067;-63
2023/12/09 05:10:03;;;;;;;42.20;29.90;;;;;;;;;;5071092;28;20086;-62
2023/12/09 05:12:29;;;;;;;39.87;30.60;;;;;;;;;;5068656;28;20033;-63
2023/12/09 05:14:55;;;;;;;42.53;31.23;;;;;;;;;;5065853;28;20027;-63
2023/12/09 05:17:21;;;;;;;45.80;32.50;;;;;;;;;;5067019;28;20044;-63
2023/12/09 05:19:47;;;;;;;44.23;30.70;;;;;;;;;;5068234;28;20060;-63
2023/12/09 05:22:14;;;;;;;46.90;31.90;;;;;;;;;;5071322;28;20406;-63
2023/12/09 05:24:40;;;;;;;48.57;33.30;;;;;;;;;;5067358;28;20104;-63
2023/12/09 05:27:06;;;;;;;53.17;35.20;;;;;;;;;;5055762;28;20107;-63
2023/12/09 05:29:32;;;;;;;56.03;36.33;;;;;;;;;;5070476;28;20074;-63
2023/12/09 05:31:59;;;;;;;56.40;36.57;;;;;;;;;;5072024;28;20538;-63
2023/12/09 05:34:25;;;;;;;55.97;35.90;;;;;;;;;;5070712;28;20020;-63
2023/12/09 05:36:51;;;;;;;54.80;36.23;;;;;;;;;;5071615;28;20040;-63
2023/12/09 05:39:17;;;;;;;53.83;34.97;;;;;;;;;;5052372;28;20441;-63
2023/12/09 05:41:43;;;;;;;59.47;38.67;;;;;;;;;;5052307;28;20028;-63
2023/12/09 05:44:08;;;;;;;59.10;37.23;;;;;;;;;;5068142;28;20127;-63
2023/12/09 05:46:36;;;;;;;56.20;35.53;;;;;;;;;;5055117;28;20211;-62
2023/12/09 05:49:02;;;;;;;55.27;35.77;;;;;;;;;;5064894;28;20017;-63
2023/12/09 05:51:28;;;;;;;59.50;36.43;;;;;;;;;;5071677;28;20036;-63
2023/12/09 05:53:54;;;;;;;65.30;38.03;;;;;;;;;;5071813;28;20021;-63
2023/12/09 05:56:20;;;;;;;68.33;39.10;;;;;;;;;;5057416;28;20025;-63
2023/12/09 05:58:46;;;;;;;66.87;37.40;;;;;;;;;;5060156;28;20351;-63
2023/12/09 06:01:12;;;;;;;60.93;36.43;;;;;;;;;;5065603;28;20028;-63
2023/12/09 06:03:38;;;;;;;71.10;36.23;;;;;;;;;;5061185;28;20024;-63
2023/12/09 06:06:05;;;;;;;74.00;36.60;;;;;;;;;;5070184;28;20070;-63
2023/12/09 06:08:31;;;;;;;66.03;37.17;;;;;;;;;;5070268;28;20045;-63
2023/12/09 06:10:57;;;;;;;66.80;36.60;;;;;;;;;;5070229;28;20428;-63
2023/12/09 06:13:23;;;;;;;64.23;35.97;;;;;;;;;;5071585;28;20540;-64
2023/12/09 06:15:49;;;;;;;61.50;33.87;;;;;;;;;;5071420;28;20069;-63
2023/12/09 06:18:15;;;;;;;60.60;33.93;;;;;;;;;;5071442;28;20126;-63
2023/12/09 06:20:41;;;;;;;60.00;34.33;;;;;;;;;;5071638;28;20020;-63
2023/12/09 06:23:07;;;;;;;60.77;34.57;;;;;;;;;;5071344;28;20025;-63
2023/12/09 06:25:33;;;;;;;62.97;34.53;;;;;;;;;;5071401;28;20021;-63
2023/12/09 06:28:00;;;;;;;67.17;36.40;;;;;;;;;;5071268;28;20033;-63
2023/12/09 06:30:26;;;;;;;67.47;37.17;;;;;;;;;;5059007;28;20083;-63
2023/12/09 06:32:52;;;;;;;73.00;37.83;;;;;;;;;;5075387;28;20032;-63
2023/12/09 06:35:18;;;;;;;66.47;35.90;;;;;;;;;;5075250;28;20104;-63
2023/12/09 06:37:44;;;;;;;69.53;37.30;;;;;;;;;;5072491;28;20024;-63
2023/12/09 06:40:10;;;;;;;62.77;34.20;;;;;;;;;;5070295;28;20039;-63
2023/12/09 06:42:38;;;;;;;67.70;35.40;;;;;;;;;;5072580;28;20189;-63
2023/12/09 06:45:04;;;;;;;65.27;36.10;;;;;;;;;;5075179;28;20029;-63
2023/12/09 06:47:30;;;;;;;63.80;34.53;;;;;;;;;;5074917;28;20059;-63
2023/12/09 06:49:56;;;;;;;65.33;34.63;;;;;;;;;;5073558;28;20474;-63
2023/12/09 06:52:22;;;;;;;65.87;36.73;;;;;;;;;;5064601;28;20025;-63
2023/12/09 06:54:48;;;;;;;63.83;34.33;;;;;;;;;;5075145;28;20128;-63
2023/12/09 06:57:14;;;;;;;67.60;35.53;;;;;;;;;;5075086;28;20462;-63
2023/12/09 06:59:41;;;;;;;59.87;33.27;;;;;;;;;;5073496;28;20028;-63
2023/12/09 07:02:07;;;;;;;67.63;34.40;;;;;;;;;;5074766;28;20490;-63
2023/12/09 07:04:36;;;;;;;65.57;35.57;;;;;;;;;;5074657;28;20021;-63
2023/12/09 07:07:02;;;;;;;68.73;36.20;;;;;;;;;;5074924;28;20481;-63
2023/12/09 07:09:31;;;;;;;63.57;34.20;;;;;;;;;;5074683;28;20465;-64
2023/12/09 07:11:57;;;;;;;65.83;35.97;;;;;;;;;;5074702;28;20037;-63
2023/12/09 07:14:23;;;;;;;67.27;35.63;;;;;;;;;;5074568;28;20139;-64
2023/12/09 07:16:49;;;;;;;61.47;33.73;;;;;;;;;;5074779;28;20114;-63
2023/12/09 07:19:15;;;;;;;64.83;34.20;;;;;;;;;;5060698;28;20029;-64
2023/12/09 07:21:41;;;;;;;64.97;34.83;;;;;;;;;;5074716;28;20420;-63
2023/12/09 07:24:07;;;;;;;69.83;36.20;;;;;;;;;;5074479;28;20025;-63
2023/12/09 07:26:33;;;;;;;62.83;32.77;;;;;;;;;;5070130;28;20381;-63
2023/12/09 07:29:03;;;;;;;60.87;33.47;;;;;;;;;;5066947;28;20021;-63
2023/12/09 07:31:29;;;;;;;60.70;32.97;;;;;;;;;;5054347;28;20110;-63
2023/12/09 07:33:55;;;;;;;63.03;33.63;;;;;;;;;;5079878;28;20451;-63
2023/12/09 07:36:21;;;;;;;66.33;36.07;;;;;;;;;;5072650;28;20024;-63
2023/12/09 07:38:47;;;;;;;61.20;34.23;;;;;;;;;;5074123;28;20105;-63
2023/12/09 07:41:14;;;;;;;64.27;34.27;;;;;;;;;;5071894;28;20367;-63
2023/12/09 07:43:40;;;;;;;57.23;34.07;;;;;;;;;;5074033;28;20081;-63
2023/12/09 07:46:06;;;;;;;60.97;32.97;;;;;;;;;;5066270;28;20116;-63
2023/12/09 07:48:32;;;;;;;64.60;34.03;;;;;;;;;;5060331;28;20098;-63
2023/12/09 07:50:58;;;;;;;59.70;33.33;;;;;;;;;;5073315;28;20039;-63
2023/12/09 07:53:24;;;;;;;62.77;34.50;;;;;;;;;;5073832;28;20386;-63
2023/12/09 07:55:50;;;;;;;56.90;33.07;;;;;;;;;;5073835;28;20024;-63
2023/12/09 07:58:16;;;;;;;61.13;34.67;;;;;;;;;;5070595;28;20082;-63
2023/12/09 08:00:42;;;;;;;61.93;34.33;;;;;;;;;;5061757;28;20113;-63
2023/12/09 08:03:08;;;;;;;60.63;34.83;;;;;;;;;;5073736;28;20046;-63
2023/12/09 08:05:34;;;;;;;58.97;33.40;;;;;;;;;;5073455;28;20064;-63
2023/12/09 08:08:01;;;;;;;58.37;34.27;;;;;;;;;;5073734;28;20028;-63
2023/12/09 08:10:27;;;;;;;60.77;33.60;;;;;;;;;;5073760;28;20028;-63
2023/12/09 08:12:53;;;;;;;60.67;33.47;;;;;;;;;;5072161;28;20021;-63
2023/12/09 08:15:19;;;;;;;54.07;32.10;;;;;;;;;;5073790;28;20386;-63
2023/12/09 08:17:45;;;;;;;53.87;30.23;;;;;;;;;;5073685;28;20020;-63
2023/12/09 08:20:11;;;;;;;57.23;31.60;;;;;;;;;;5073429;28;20044;-63
2023/12/09 08:22:41;;;;;;;63.20;33.13;;;;;;;;;;5073241;28;20107;-64
2023/12/09 08:25:08;;;;;;;61.20;31.80;;;;;;;;;;5057886;28;20147;-63
2023/12/09 08:27:35;;;;;;;56.80;32.27;;;;;;;;;;5071745;28;20025;-63
2023/12/09 08:30:01;;;;;;;54.93;32.80;;;;;;;;;;5068525;28;20100;-63
2023/12/09 08:32:27;;;;;;;58.73;33.87;;;;;;;;;;5078745;28;20110;-64
2023/12/09 08:34:53;;;;;;;61.03;34.63;;;;;;;;;;5073013;28;20036;-64
2023/12/09 08:37:25;;;;;;;57.97;32.13;;;;;;;;;;5072990;28;20047;-64
2023/12/09 08:39:53;;;;;;;59.33;33.20;;;;;;;;;;5072769;28;20333;-63
2023/12/09 08:42:19;;;;;;;62.93;33.70;;;;;;;;;;5072968;28;20112;-63
2023/12/09 08:47:48;;;;;;;51.93;31.47;;;;;;;;;;5058929;28;20410;-62
2023/12/09 08:50:14;;;;;;;57.97;33.07;;;;;;;;;;5057076;28;20033;-63
2023/12/09 08:52:40;;;;;;;55.03;31.23;;;;;;;;;;5070143;28;20021;-63
2023/12/09 08:55:06;;;;;;;52.73;30.83;;;;;;;;;;5072791;28;20025;-64
2023/12/09 08:57:32;;;;;;;58.03;33.33;;;;;;;;;;5072631;28;20020;-63
2023/12/09 08:59:58;;;;;;;48.40;30.63;;;;;;;;;;5072682;28;20029;-63
2023/12/09 09:02:26;;;;;;;50.10;30.33;;;;;;;;;;5072442;28;20085;-63
2023/12/09 09:04:52;;;;;;;50.47;29.93;;;;;;;;;;5072367;28;20489;-64
2023/12/09 09:07:18;;;;;;;48.00;29.10;;;;;;;;;;5072507;28;20063;-63
2023/12/09 09:09:44;;;;;;;47.43;30.13;;;;;;;;;;5063903;28;20525;-63
2023/12/09 09:12:10;;;;;;;54.07;30.17;;;;;;;;;;5066672;28;20033;-64
2023/12/09 09:14:37;;;;;;;50.73;29.80;;;;;;;;;;5070922;28;20481;-63
2023/12/09 09:17:06;;;;;;;49.00;28.73;;;;;;;;;;5072314;28;20028;-63
2023/12/09 09:19:32;;;;;;;49.80;29.47;;;;;;;;;;5072137;28;20024;-63
2023/12/09 09:21:58;;;;;;;51.73;30.17;;;;;;;;;;5072626;28;20035;-63
2023/12/09 09:24:24;;;;;;;56.57;30.80;;;;;;;;;;5070696;28;20374;-63
2023/12/09 09:26:50;;;;;;;47.23;28.93;;;;;;;;;;5070810;28;20071;-63
2023/12/09 09:29:16;;;;;;;47.70;28.90;;;;;;;;;;5058223;28;20332;-64
2023/12/09 09:31:42;;;;;;;51.03;31.07;;;;;;;;;;5072007;28;20062;-65
2023/12/09 09:34:08;;;;;;;51.03;29.77;;;;;;;;;;5070823;28;20374;-64
2023/12/09 09:36:34;;;;;;;47.47;30.47;;;;;;;;;;5066210;28;20032;-64
2023/12/09 09:39:00;;;;;;;48.43;28.90;;;;;;;;;;5065877;28;20027;-63
2023/12/09 09:41:32;;;;;;;47.53;30.20;;;;;;;;;;5070446;28;20032;-63
2023/12/09 09:44:01;;;;;;;50.23;30.10;;;;;;;;;;5070661;28;20024;-64
2023/12/09 09:46:27;;;;;;;52.50;28.57;;;;;;;;;;5074630;28;20024;-63
2023/12/09 09:48:54;;;;;;;47.83;29.53;;;;;;;;;;5074740;28;20048;-63
2023/12/09 09:51:28;;;;;;;46.13;30.03;;;;;;;;;;5076136;28;20089;-63
2023/12/09 09:53:58;;;;;;;50.85;30.58;;;;;;;;;;5074980;28;20032;-63
2023/12/09 09:56:24;;;;;;;48.37;30.33;;;;;;;;;;5074227;28;20024;-63
2023/12/09 09:58:50;;;;;;;50.67;31.17;;;;;;;;;;5062374;28;20028;-63
2023/12/09 10:01:17;;;;;;;48.43;29.90;;;;;;;;;;5070761;28;20057;-63
2023/12/09 10:03:44;;;;;;;55.30;31.27;;;;;;;;;;5072366;28;20048;-63
2023/12/09 10:06:10;;;;;;;49.00;30.50;;;;;;;;;;5074638;28;20385;-64
2023/12/09 10:08:36;;;;;;;49.30;30.80;;;;;;;;;;5072203;28;20028;-65
2023/12/09 10:11:02;;;;;;;49.07;31.07;;;;;;;;;;5071902;28;20033;-64
2023/12/09 10:13:28;;;;;;;51.07;31.63;;;;;;;;;;5072278;28;20343;-64
2023/12/09 10:15:54;;;;;;;47.73;31.60;;;;;;;;;;5068836;28;20498;-64
2023/12/09 10:18:21;;;;;;;50.97;30.00;;;;;;;;;;5068390;28;20079;-65
2023/12/09 10:20:47;;;;;;;50.00;32.30;;;;;;;;;;5071776;28;20029;-64
2023/12/09 10:23:13;;;;;;;51.37;31.00;;;;;;;;;;5070606;28;20032;-64
2023/12/09 10:25:40;;;;;;;49.77;31.43;;;;;;;;;;5070525;28;20036;-63
2023/12/09 10:28:09;;;;;;;53.10;33.80;;;;;;;;;;5071436;28;20416;-64
2023/12/09 10:30:36;;;;;;;52.40;32.30;;;;;;;;;;5058271;28;20028;-64
2023/12/09 10:33:02;;;;;;;47.23;31.30;;;;;;;;;;5061020;28;20021;-64
2023/12/09 10:36:03;;;;;;;52.33;31.80;;;;;;;;;;5066856;28;20074;-64
2023/12/09 10:38:30;;;;;;;51.90;32.90;;;;;;;;;;5055291;28;20049;-64
2023/12/09 10:40:57;;;;;;;50.60;32.30;;;;;;;;;;5070081;28;20017;-64
2023/12/09 10:43:24;;;;;;;52.10;32.87;;;;;;;;;;5070116;28;20036;-64
2023/12/09 10:45:50;;;;;;;45.80;29.83;;;;;;;;;;5056911;28;20489;-63
2023/12/09 10:48:16;;;;;;;50.40;32.83;;;;;;;;;;5063237;28;20049;-64
2023/12/09 10:50:46;;;;;;;51.80;33.57;;;;;;;;;;5061487;28;20075;-64
2023/12/09 10:53:12;;;;;;;53.07;33.10;;;;;;;;;;5071496;28;20016;-64
2023/12/09 10:55:39;;;;;;;46.60;30.83;;;;;;;;;;5067402;28;20029;-63
2023/12/09 10:58:06;;;;;;;46.33;31.07;;;;;;;;;;5071563;28;20056;-64
2023/12/09 11:00:32;;;;;;;50.43;32.63;;;;;;;;;;5071470;28;20052;-64
2023/12/09 11:02:59;;;;;;;47.50;31.13;;;;;;;;;;5064476;28;20029;-64
2023/12/09 11:05:25;;;;;;;50.53;31.17;;;;;;;;;;5051422;28;20382;-64
2023/12/09 11:07:52;;;;;;;47.50;31.47;;;;;;;;;;5057520;28;20367;-64
2023/12/09 11:10:19;;;;;;;49.00;32.13;;;;;;;;;;5071299;28;20059;-64
2023/12/09 11:12:47;;;;;;;43.53;30.43;;;;;;;;;;5057914;28;20017;-64
2023/12/09 11:15:13;;;;;;;43.87;29.57;;;;;;;;;;5057555;28;20158;-64
2023/12/09 11:17:40;;;;;;;46.20;31.80;;;;;;;;;;5074713;28;20187;-64
2023/12/09 11:20:09;;;;;;;45.73;29.53;;;;;;;;;;5058062;28;20025;-64
2023/12/09 11:22:43;;;;;;;43.67;29.83;;;;;;;;;;5064350;28;20025;-64
2023/12/09 11:25:11;;;;;;;45.80;30.53;;;;;;;;;;5074778;28;20479;-63
2023/12/09 11:27:37;;;;;;;49.57;31.50;;;;;;;;;;5074871;28;20050;-64
2023/12/09 11:30:05;;;;;;;47.03;31.60;;;;;;;;;;5074864;28;20043;-64
2023/12/09 11:32:31;;;;;;;44.77;30.87;;;;;;;;;;5073617;28;20032;-64
2023/12/09 11:34:57;;;;;;;42.40;30.07;;;;;;;;;;5074403;28;20048;-64
2023/12/09 11:37:25;;;;;;;40.10;28.33;;;;;;;;;;5074418;28;20078;-63
2023/12/09 11:39:51;;;;;;;43.00;29.85;;;;;;;;;;5074347;28;20024;-64
2023/12/09 11:42:19;;;;;;;42.47;29.70;;;;;;;;;;5074208;28;20055;-64
2023/12/09 11:44:47;;;;;;;43.03;30.03;;;;;;;;;;5070986;28;20364;-64
2023/12/09 11:47:13;;;;;;;43.03;29.97;;;;;;;;;;5071821;28;20480;-64
2023/12/09 11:49:40;;;;;;;43.03;29.10;;;;;;;;;;5074632;28;20016;-64
2023/12/09 11:52:06;;;;;;;42.17;29.27;;;;;;;;;;5073972;28;20485;-64
2023/12/09 11:54:32;;;;;;;40.70;29.03;;;;;;;;;;5064835;28;20028;-64
2023/12/09 11:56:58;;;;;;;45.57;30.30;;;;;;;;;;5069150;28;20024;-63
2023/12/09 11:59:24;;;;;;;41.50;28.53;;;;;;;;;;5067437;28;20013;-64
2023/12/09 12:01:50;;;;;;;43.60;31.10;;;;;;;;;;5066282;28;20470;-64
2023/12/09 12:07:19;;;;;;;42.40;30.10;;;;;;;;;;5056494;28;20423;-63
2023/12/09 12:09:45;;;;;;;45.50;30.97;;;;;;;;;;5074094;28;20040;-63
2023/12/09 12:12:11;;;;;;;42.83;29.90;;;;;;;;;;5074051;28;20077;-64
2023/12/09 12:14:37;;;;;;;44.13;30.43;;;;;;;;;;5073861;28;20024;-64
2023/12/09 12:17:04;;;;;;;43.77;31.27;;;;;;;;;;5073569;28;20497;-64
2023/12/09 12:19:30;;;;;;;45.23;30.53;;;;;;;;;;5064259;28;20024;-64
2023/12/09 12:21:56;;;;;;;45.53;31.30;;;;;;;;;;5073458;28;20478;-64
2023/12/09 12:24:22;;;;;;;42.80;30.27;;;;;;;;;;5073324;28;20116;-63
2023/12/09 12:26:48;;;;;;;41.93;28.73;;;;;;;;;;5069207;28;20106;-63
2023/12/09 12:29:18;;;;;;;42.03;29.80;;;;;;;;;;5073698;28;20021;-64
2023/12/09 12:31:44;;;;;;;42.17;30.13;;;;;;;;;;5073438;28;20032;-64
2023/12/09 12:34:19;;;;;;;41.80;30.83;;;;;;;;;;5073379;28;20124;-63
2023/12/09 12:36:48;;;;;;;45.97;31.10;;;;;;;;;;5066232;28;20025;-63
2023/12/09 12:39:15;;;;;;;41.27;29.60;;;;;;;;;;5061077;28;20483;-63
2023/12/09 12:41:41;;;;;;;41.53;29.25;;;;;;;;;;5064482;28;20083;-63
2023/12/09 12:44:07;;;;;;;38.22;29.10;;;;;;;;;;5073509;28;20016;-63
2023/12/09 12:46:33;;;;;;;41.43;30.03;;;;;;;;;;5073322;28;20052;-63
2023/12/09 12:49:00;;;;;;;41.50;28.83;;;;;;;;;;5072585;28;20543;-63
2023/12/09 12:51:26;;;;;;;43.37;28.67;;;;;;;;;;5072881;28;20521;-63
2023/12/09 12:53:52;;;;;;;35.47;27.03;;;;;;;;;;5072578;28;20024;-63
2023/12/09 12:56:18;;;;;;;41.50;29.33;;;;;;;;;;5065089;28;20029;-63
2023/12/09 12:58:44;;;;;;;41.28;28.38;;;;;;;;;;5066475;28;20077;-63
2023/12/09 13:01:10;;;;;;;40.85;28.70;;;;;;;;;;5070843;28;20111;-63
2023/12/09 13:03:36;;;;;;;41.60;29.65;;;;;;;;;;5066256;28;20027;-63
2023/12/09 13:06:04;;;;;;;38.92;28.40;;;;;;;;;;5072844;28;20025;-63
2023/12/09 13:08:31;;;;;;;47.28;32.00;;;;;;;;;;5072605;28;20023;-63
2023/12/09 13:10:57;;;;;;;41.15;29.95;;;;;;;;;;5070987;28;20082;-64
2023/12/09 13:13:23;;;;;;;41.38;27.75;;;;;;;;;;5072449;28;20020;-63
2023/12/09 13:15:50;;;;;;;38.00;27.63;;;;;;;;;;5072587;28;20032;-63
2023/12/09 13:18:17;;;;;;;40.43;29.23;;;;;;;;;;5072305;28;20009;-62
2023/12/09 13:20:45;;;;;;;37.55;28.63;;;;;;;;;;5072398;28;20020;-62
2023/12/09 13:23:11;;;;;;;40.50;29.17;;;;;;;;;;5072316;28;20105;-62
2023/12/09 13:25:37;;;;;;;42.20;30.00;;;;;;;;;;5072405;28;20079;-62
2023/12/09 13:28:03;;;;;;;37.67;27.97;;;;;;;;;;5068143;28;20099;-62
2023/12/09 13:30:29;;;;;;;39.17;28.75;;;;;;;;;;5072275;28;20051;-62
2023/12/09 13:33:01;;;;;;;38.20;27.43;;;;;;;;;;5072298;28;20025;-62
2023/12/09 13:35:28;;;;;;;36.80;26.73;;;;;;;;;;5071887;28;20029;-63
2023/12/09 13:37:54;;;;;;;41.57;28.10;;;;;;;;;;5071767;28;20031;-63
2023/12/09 13:40:21;;;;;;;39.20;29.13;;;;;;;;;;5071306;28;20091;-63
2023/12/09 13:42:48;;;;;;;36.80;27.60;;;;;;;;;;5071976;28;20021;-62
2023/12/09 13:45:14;;;;;;;39.05;27.00;;;;;;;;;;5064170;28;20025;-62
2023/12/09 13:47:40;;;;;;;41.33;28.63;;;;;;;;;;5068093;28;20052;-63
2023/12/09 13:50:07;;;;;;;41.93;28.47;;;;;;;;;;5070974;28;20425;-63
2023/12/09 13:52:36;;;;;;;38.23;26.57;;;;;;;;;;5071661;28;20052;-62
2023/12/09 13:55:03;;;;;;;39.90;28.00;;;;;;;;;;5071534;28;20355;-63
2023/12/09 13:57:29;;;;;;;35.37;26.03;;;;;;;;;;5070607;28;20061;-64
2023/12/09 13:59:55;;;;;;;42.30;29.07;;;;;;;;;;5062233;28;20425;-63
2023/12/09 14:02:22;;;;;;;47.10;30.47;;;;;;;;;;5067185;28;20028;-63
2023/12/09 14:04:48;;;;;;;40.37;28.97;;;;;;;;;;5071720;28;20017;-63
2023/12/09 14:07:15;;;;;;;45.03;30.80;;;;;;;;;;5071689;28;20021;-63
2023/12/09 14:09:41;;;;;;;41.47;29.27;;;;;;;;;;5071749;28;20012;-63
2023/12/09 14:12:07;;;;;;;42.70;28.53;;;;;;;;;;5059268;28;20074;-63
2023/12/09 14:14:33;;;;;;;44.77;29.60;;;;;;;;;;5070219;28;20016;-63
2023/12/09 14:16:59;;;;;;;45.63;30.13;;;;;;;;;;5071784;28;20020;-63
2023/12/09 14:19:27;;;;;;;43.53;29.10;;;;;;;;;;5070363;28;21738;-63
2023/12/09 14:21:53;;;;;;;43.03;29.48;;;;;;;;;;5071345;28;20466;-63
2023/12/09 14:24:20;;;;;;;39.13;28.47;;;;;;;;;;5071708;28;20367;-63
2023/12/09 14:26:46;;;;;;;44.20;29.60;;;;;;;;;;5071442;28;20023;-63
2023/12/09 14:29:13;;;;;;;42.30;29.93;;;;;;;;;;5071397;28;20029;-63